Time;durP1;ratioP1;P1;durP2;ratioP2;P2;SDS_P1;SDS_P2;PMS_P1;PMS_P2;Temp;Humidity;BMP_temperature;BMP_pressure;BME280_temperature;BME280_humidity;BME280_pressure;Samples;Min_cycle;Max_cycle;Signal;HPM_P1;HPM_P2
2021/09/06 00:00:48;;;;;;;;;;;;;;;15.04;67.83;96989.47;5056090;28;20000;-84
2021/09/06 00:03:14;;;;;;;;;;;;;;;15.01;68.44;96989.91;5056217;28;19990;-84
2021/09/06 00:05:40;;;;;;;;;;;;;;;14.99;68.56;96989.34;5056347;28;19995;-84
2021/09/06 00:08:06;;;;;;;;;;;;;;;14.95;68.69;96986.41;5055771;28;20037;-84
2021/09/06 00:10:35;;;;;;;;;;;;;;;14.95;68.52;96988.22;5055761;28;19988;-84
2021/09/06 00:13:01;;;;;;;;;;;;;;;14.92;68.20;96984.19;5055496;28;19968;-84
2021/09/06 00:15:27;;;;;;;;;;;;;;;14.91;68.59;96976.50;5056042;28;19972;-84
2021/09/06 00:17:53;;;;;;;;;;;;;;;14.88;68.54;96985.69;5055675;28;19973;-84
2021/09/06 00:20:22;;;;;;;;;;;;;;;14.85;68.62;96986.16;5054904;28;20368;-84
2021/09/06 00:22:48;;;;;;;;;;;;;;;14.82;68.94;96984.81;5055702;28;20361;-84
2021/09/06 00:25:14;;;;;;;;;;;;;;;14.81;68.94;96979.75;5055422;28;19976;-84
2021/09/06 00:27:40;;;;;;;;;;;;;;;14.78;69.17;96990.75;5056125;28;20033;-84
2021/09/06 00:30:08;;;;;;;;;;;;;;;14.76;68.88;96988.38;5054756;28;20004;-84
2021/09/06 00:32:34;;;;;;;;;;;;;;;14.71;69.09;96982.97;5055634;28;19987;-84
2021/09/06 00:35:00;;;;;;;;;;;;;;;14.69;69.72;96990.31;5055875;28;19996;-84
2021/09/06 00:37:26;;;;;;;;;;;;;;;14.66;69.66;96984.69;5054620;28;19995;-84
2021/09/06 00:39:52;;;;;;;;;;;;;;;14.62;69.66;96979.06;5055353;28;20488;-84
2021/09/06 00:42:17;;;;;;;;;;;;;;;14.61;69.32;96982.72;5054903;28;19985;-84
2021/09/06 00:44:43;;;;;;;;;;;;;;;14.57;69.51;96978.94;5055611;28;20083;-84
2021/09/06 00:47:10;;;;;;;;;;;;;;;14.54;69.24;96977.53;5055285;28;19992;-84
2021/09/06 00:49:36;;;;;;;;;;;;;;;14.52;69.32;96984.09;5055045;28;19969;-84
2021/09/06 00:52:02;;;;;;;;;;;;;;;14.48;69.23;96983.72;5054941;28;20483;-84
2021/09/06 00:54:28;;;;;;;;;;;;;;;14.47;69.92;96981.31;5055012;28;20001;-84
2021/09/06 00:56:54;;;;;;;;;;;;;;;14.44;69.43;96982.59;5055088;28;20024;-84
2021/09/06 00:59:20;;;;;;;;;;;;;;;14.43;69.96;96994.19;5055532;28;20517;-84
2021/09/06 01:01:46;;;;;;;;;;;;;;;14.40;69.68;96984.06;5055177;28;20412;-84
2021/09/06 01:04:12;;;;;;;;;;;;;;;14.36;69.65;96986.38;5052743;28;19975;-84
2021/09/06 01:06:38;;;;;;;;;;;;;;;14.33;69.70;96981.56;5054797;28;19980;-84
2021/09/06 01:09:04;;;;;;;;;;;;;;;14.31;69.75;96983.63;5054560;28;20409;-84
2021/09/06 01:11:30;;;;;;;;;;;;;;;14.28;70.02;96985.91;5054895;28;19991;-84
2021/09/06 01:13:56;;;;;;;;;;;;;;;14.25;69.84;96981.88;5053458;28;19979;-84
2021/09/06 01:16:23;;;;;;;;;;;;;;;14.22;69.97;96987.63;5054881;28;19994;-84
2021/09/06 01:18:49;;;;;;;;;;;;;;;14.18;70.28;96983.84;5054545;28;19983;-84
2021/09/06 01:21:15;;;;;;;;;;;;;;;14.14;70.77;96986.13;5054300;28;19976;-84
2021/09/06 01:23:41;;;;;;;;;;;;;;;14.11;70.96;96991.03;5054365;28;20477;-84
2021/09/06 01:26:07;;;;;;;;;;;;;;;14.08;70.56;96992.28;5054708;28;19977;-84
2021/09/06 01:28:34;;;;;;;;;;;;;;;14.05;70.65;96991.94;5054362;28;19976;-84
2021/09/06 01:31:00;;;;;;;;;;;;;;;14.04;71.17;96992.97;5054434;28;19984;-84
2021/09/06 01:33:26;;;;;;;;;;;;;;;14.02;71.01;96995.84;5054242;28;19975;-84
2021/09/06 01:35:52;;;;;;;;;;;;;;;13.99;71.17;96991.81;5054044;28;19981;-84
2021/09/06 01:38:18;;;;;;;;;;;;;;;13.96;71.22;97000.19;5054012;28;20325;-84
2021/09/06 01:40:44;;;;;;;;;;;;;;;13.94;71.41;96991.72;5054597;28;19976;-85
2021/09/06 01:43:10;;;;;;;;;;;;;;;13.91;71.22;96994.78;5053996;28;19978;-84
2021/09/06 01:45:36;;;;;;;;;;;;;;;13.91;71.13;96993.97;5054148;28;20023;-84
2021/09/06 01:48:02;;;;;;;;;;;;;;;13.88;71.32;96991.78;5052833;28;20028;-84
2021/09/06 01:50:28;;;;;;;;;;;;;;;13.86;71.41;96994.66;5054093;28;19979;-84
2021/09/06 01:52:54;;;;;;;;;;;;;;;13.84;72.21;96990.63;5053726;28;19984;-84
2021/09/06 01:55:20;;;;;;;;;;;;;;;13.80;71.72;96996.34;5054084;28;19993;-84
2021/09/06 01:57:46;;;;;;;;;;;;;;;13.78;71.82;96987.88;5054278;28;19997;-84
2021/09/06 02:00:12;;;;;;;;;;;;;;;13.78;71.79;96993.13;5053834;28;20005;-84
2021/09/06 02:02:38;;;;;;;;;;;;;;;13.75;72.21;96988.34;5053987;28;19978;-84
2021/09/06 02:05:04;;;;;;;;;;;;;;;13.73;71.94;96994.84;5053750;28;19976;-84
2021/09/06 02:07:30;;;;;;;;;;;;;;;13.70;72.04;96996.09;5053606;28;19994;-84
2021/09/06 02:09:56;;;;;;;;;;;;;;;13.68;72.22;96994.72;5052157;28;19985;-84
2021/09/06 02:12:22;;;;;;;;;;;;;;;13.66;72.29;97002.84;5053263;28;20354;-84
2021/09/06 02:14:47;;;;;;;;;;;;;;;13.64;72.21;96996.19;5053627;28;20079;-84
2021/09/06 02:17:13;;;;;;;;;;;;;;;13.61;72.25;96997.44;5053944;28;19985;-84
2021/09/06 02:19:39;;;;;;;;;;;;;;;13.59;72.35;96995.03;5053531;28;19975;-84
2021/09/06 02:22:05;;;;;;;;;;;;;;;13.59;72.10;96997.66;5053682;28;19997;-84
2021/09/06 02:24:32;;;;;;;;;;;;;;;13.59;73.09;96999.50;5053874;28;19998;-84
2021/09/06 02:26:58;;;;;;;;;;;;;;;13.58;72.85;96998.66;5053446;28;20048;-84
2021/09/06 02:29:23;;;;;;;;;;;;;;;13.56;72.74;96999.94;5053892;28;20068;-85
2021/09/06 02:31:49;;;;;;;;;;;;;;;13.53;72.70;97003.81;5053613;28;19977;-85
2021/09/06 02:34:15;;;;;;;;;;;;;;;13.51;72.79;97000.59;5053469;28;20010;-85
2021/09/06 02:36:41;;;;;;;;;;;;;;;13.48;72.64;96995.78;5053392;28;20029;-85
2021/09/06 02:39:07;;;;;;;;;;;;;;;13.47;72.75;97001.28;5054059;28;20330;-85
2021/09/06 02:41:33;;;;;;;;;;;;;;;13.45;72.46;96998.84;5053339;28;20450;-85
2021/09/06 02:43:59;;;;;;;;;;;;;;;13.44;72.64;96999.91;5053368;28;19977;-85
2021/09/06 02:46:25;;;;;;;;;;;;;;;13.42;72.12;97004.56;5053466;28;20344;-85
2021/09/06 02:48:51;;;;;;;;;;;;;;;13.39;72.02;96999.75;5053291;28;19982;-85
2021/09/06 02:51:17;;;;;;;;;;;;;;;13.38;72.77;97003.41;5053387;28;20315;-85
2021/09/06 02:53:43;;;;;;;;;;;;;;;13.35;72.40;97007.28;5052408;28;20375;-85
2021/09/06 02:56:09;;;;;;;;;;;;;;;13.33;72.73;97013.78;5053325;28;19983;-85
2021/09/06 02:58:35;;;;;;;;;;;;;;;13.31;72.95;97010.56;5053164;28;20350;-85
2021/09/06 03:01:00;;;;;;;;;;;;;;;13.28;72.81;97011.00;5053179;28;19984;-85
2021/09/06 03:03:26;;;;;;;;;;;;;;;13.25;72.99;97003.53;5053328;28;20512;-85
2021/09/06 03:05:52;;;;;;;;;;;;;;;13.24;73.23;97007.19;5052831;28;20418;-85
2021/09/06 03:08:18;;;;;;;;;;;;;;;13.19;72.88;97000.75;5053746;28;19986;-85
2021/09/06 03:10:44;;;;;;;;;;;;;;;13.18;73.16;97009.66;5053388;28;19988;-85
2021/09/06 03:13:10;;;;;;;;;;;;;;;13.16;73.08;97009.09;5052965;28;20483;-85
2021/09/06 03:15:36;;;;;;;;;;;;;;;13.14;72.62;97000.59;5053203;28;20076;-85
2021/09/06 03:18:02;;;;;;;;;;;;;;;13.14;72.66;97003.22;5052704;28;20045;-85
2021/09/06 03:20:28;;;;;;;;;;;;;;;13.14;72.83;97002.44;5052948;28;20008;-85
2021/09/06 03:22:54;;;;;;;;;;;;;;;13.11;73.52;97001.06;5053278;28;20050;-85
2021/09/06 03:25:20;;;;;;;;;;;;;;;13.10;73.30;97006.53;5056806;28;20391;-85
2021/09/06 03:27:45;;;;;;;;;;;;;;;13.07;72.84;97006.97;5055901;28;19974;-85
2021/09/06 03:30:12;;;;;;;;;;;;;;;13.06;73.35;97006.19;5056717;28;20067;-85
2021/09/06 03:32:37;;;;;;;;;;;;;;;13.04;73.13;96999.50;5056525;28;19984;-85
2021/09/06 03:35:03;;;;;;;;;;;;;;;13.02;73.58;97005.00;5038034;28;19976;-85
2021/09/06 03:37:29;;;;;;;;;;;;;;;12.99;73.09;96994.91;5056596;28;20001;-85
2021/09/06 03:39:55;;;;;;;;;;;;;;;12.97;73.25;96991.69;5056655;28;19988;-85
2021/09/06 03:42:21;;;;;;;;;;;;;;;12.95;73.05;96997.16;5056270;28;19969;-85
2021/09/06 03:44:47;;;;;;;;;;;;;;;12.93;73.65;97001.03;5056332;28;20025;-85
2021/09/06 03:47:13;;;;;;;;;;;;;;;12.88;73.60;96999.06;5056167;28;20142;-85
2021/09/06 03:49:39;;;;;;;;;;;;;;;12.86;73.42;96993.22;5056191;28;20004;-85
2021/09/06 03:52:05;;;;;;;;;;;;;;;12.86;73.31;96998.50;5056279;28;20063;-85
2021/09/06 03:54:31;;;;;;;;;;;;;;;12.84;73.81;96997.91;5056939;28;19996;-85
2021/09/06 03:56:56;;;;;;;;;;;;;;;12.83;73.86;96995.47;5056025;28;19988;-85
2021/09/06 03:59:22;;;;;;;;;;;;;;;12.80;74.05;97000.16;5055979;28;20395;-85
2021/09/06 04:01:48;;;;;;;;;;;;;;;12.77;74.38;96997.97;5055864;28;19983;-85
2021/09/06 04:04:14;;;;;;;;;;;;;;;12.75;73.44;97000.03;5055927;28;20422;-85
2021/09/06 04:06:40;;;;;;;;;;;;;;;12.74;73.84;97000.22;5055835;28;20086;-85
2021/09/06 04:09:06;;;;;;;;;;;;;;;12.71;73.71;96998.84;5056011;28;19971;-85
2021/09/06 04:11:32;;;;;;;;;;;;;;;12.70;74.08;97002.47;5056101;28;19977;-85
2021/09/06 04:13:58;;;;;;;;;;;;;;;12.67;74.16;97005.56;5056085;28;20011;-85
2021/09/06 04:16:24;;;;;;;;;;;;;;;12.66;74.06;97001.34;5055755;28;20081;-86
2021/09/06 04:18:50;;;;;;;;;;;;;;;12.64;73.77;97008.63;5055696;28;20010;-85
2021/09/06 04:21:16;;;;;;;;;;;;;;;12.63;73.71;97012.28;5055619;28;20001;-85
2021/09/06 04:23:42;;;;;;;;;;;;;;;12.63;73.86;97008.84;5055929;28;20011;-85
2021/09/06 04:26:08;;;;;;;;;;;;;;;12.59;74.37;97017.16;5055476;28;20491;-85
2021/09/06 04:28:34;;;;;;;;;;;;;;;12.58;73.99;97020.03;5055539;28;20003;-85
2021/09/06 04:31:00;;;;;;;;;;;;;;;12.56;74.15;97022.06;5053257;28;20515;-85
2021/09/06 04:33:26;;;;;;;;;;;;;;;12.54;73.91;97017.00;5055429;28;20078;-85
2021/09/06 04:35:52;;;;;;;;;;;;;;;12.51;73.88;97024.53;5055267;28;19994;-85
2021/09/06 04:38:18;;;;;;;;;;;;;;;12.49;73.81;97023.94;5055148;28;20462;-85
2021/09/06 04:40:44;;;;;;;;;;;;;;;12.48;73.37;97028.41;5055233;28;19969;-84
2021/09/06 04:43:10;;;;;;;;;;;;;;;12.48;73.71;97033.66;5055234;28;20512;-86
2021/09/06 04:45:36;;;;;;;;;;;;;;;12.45;73.69;97028.84;5055405;28;20362;-85
2021/09/06 04:48:02;;;;;;;;;;;;;;;12.43;74.05;97030.88;5054915;28;20026;-85
2021/09/06 04:50:28;;;;;;;;;;;;;;;12.41;73.55;97037.34;5054992;28;19995;-85
2021/09/06 04:52:55;;;;;;;;;;;;;;;12.39;73.95;97040.22;5055084;28;20045;-85
2021/09/06 04:55:21;;;;;;;;;;;;;;;12.37;73.89;97047.53;5055818;28;19984;-85
2021/09/06 04:57:47;;;;;;;;;;;;;;;12.37;74.11;97047.53;5054954;28;20004;-85
2021/09/06 05:00:13;;;;;;;;;;;;;;;12.36;74.03;97053.78;5054795;28;20095;-84
2021/09/06 05:02:39;;;;;;;;;;;;;;;12.34;74.64;97054.00;5054649;28;20098;-85
2021/09/06 05:05:05;;;;;;;;;;;;;;;12.33;74.27;97057.66;5054987;28;19983;-85
2021/09/06 05:07:31;;;;;;;;;;;;;;;12.33;73.97;97057.66;5055026;28;19985;-85
2021/09/06 05:09:57;;;;;;;;;;;;;;;12.34;73.91;97066.34;5054805;28;20409;-86
2021/09/06 05:12:23;;;;;;;;;;;;;;;12.33;73.78;97068.16;5054696;28;20011;-86
2021/09/06 05:14:49;;;;;;;;;;;;;;;12.34;73.89;97068.97;5054490;28;19979;-85
2021/09/06 05:17:15;;;;;;;;;;;;;;;12.33;74.13;97076.06;5054703;28;20011;-85
2021/09/06 05:19:40;;;;;;;;;;;;;;;12.32;74.70;97069.19;5054627;28;20078;-86
2021/09/06 05:22:07;;;;;;;;;;;;;;;12.32;74.75;97071.81;5054350;28;20048;-86
2021/09/06 05:24:33;;;;;;;;;;;;;;;12.58;74.64;97068.19;5054581;28;20004;-86
2021/09/06 05:26:59;;;;;;;;;;;;;;;13.13;73.20;97064.03;5054448;28;19971;-85
2021/09/06 05:29:25;;;;;;;;;;;;;;;13.71;71.87;97063.63;5054136;28;19977;-86
2021/09/06 05:31:51;;;;;;;;;;;;;;;14.28;70.47;97065.03;5054365;28;19980;-85
2021/09/06 05:34:17;;;;;;;;;;;;;;;14.78;69.09;97070.78;5054342;28;20427;-86
2021/09/06 05:36:43;;;;;;;;;;;;;;;15.26;67.85;97068.91;5054127;28;20012;-85
2021/09/06 05:39:09;;;;;;;;;;;;;;;15.71;66.48;97067.44;5054347;28;20432;-86
2021/09/06 05:41:35;;;;;;;;;;;;;;;16.12;65.31;97062.94;5054170;28;20486;-85
2021/09/06 05:44:04;;;;;;;;;;;;;;;16.50;64.55;97056.16;5054143;28;19977;-85
2021/09/06 05:46:30;;;;;;;;;;;;;;;16.84;63.68;97057.78;5052997;28;19981;-85
2021/09/06 05:48:56;;;;;;;;;;;;;;;17.19;62.75;97061.16;5054016;28;20344;-85
2021/09/06 05:51:25;;;;;;;;;;;;;;;17.51;61.81;97055.19;5054338;28;19973;-85
2021/09/06 05:53:50;;;;;;;;;;;;;;;17.77;61.41;97057.09;5054122;28;19988;-85
2021/09/06 05:56:19;;;;;;;;;;;;;;;18.03;60.58;97054.72;5054101;28;20005;-86
2021/09/06 05:58:45;;;;;;;;;;;;;;;18.30;60.36;97062.69;5052478;28;19992;-85
2021/09/06 06:01:11;;;;;;;;;;;;;;;18.53;59.67;97058.91;5054326;28;19977;-85
2021/09/06 06:03:36;;;;;;;;;;;;;;;18.77;59.56;97058.53;5053755;28;20418;-85
2021/09/06 06:06:02;;;;;;;;;;;;;;;18.96;59.20;97059.78;5053741;28;20056;-85
2021/09/06 06:08:28;;;;;;;;;;;;;;;19.14;58.66;97053.22;5053863;28;19980;-84
2021/09/06 06:10:54;;;;;;;;;;;;;;;19.32;58.44;97054.66;5053853;28;19969;-85
2021/09/06 06:13:20;;;;;;;;;;;;;;;19.45;58.30;97056.03;5053422;28;20171;-85
2021/09/06 06:15:46;;;;;;;;;;;;;;;19.41;57.74;97050.44;5053814;28;19981;-85
2021/09/06 06:18:12;;;;;;;;;;;;;;;19.08;57.67;97053.44;5052390;28;20072;-85
2021/09/06 06:20:38;;;;;;;;;;;;;;;18.82;58.58;97067.38;5053628;28;20350;-84
2021/09/06 06:23:04;;;;;;;;;;;;;;;18.75;58.68;97061.47;5053808;28;20028;-84
2021/09/06 06:25:30;;;;;;;;;;;;;;;18.84;58.89;97065.28;5053573;28;19969;-84
2021/09/06 06:27:56;;;;;;;;;;;;;;;18.85;58.61;97066.06;5053660;28;20354;-84
2021/09/06 06:30:23;;;;;;;;;;;;;;;18.89;58.64;97071.69;5053486;28;19977;-84
2021/09/06 06:32:49;;;;;;;;;;;;;;;18.84;58.86;97064.47;5053496;28;19965;-84
2021/09/06 06:35:15;;;;;;;;;;;;;;;18.82;59.20;97078.00;5054737;28;19969;-84
2021/09/06 06:37:40;;;;;;;;;;;;;;;18.86;59.63;97083.63;5053647;28;19996;-84
2021/09/06 06:40:07;;;;;;;;;;;;;;;18.92;58.84;97077.28;5053318;28;20000;-84
2021/09/06 06:42:33;;;;;;;;;;;;;;;19.00;59.54;97090.09;5053163;28;19977;-84
2021/09/06 06:44:58;;;;;;;;;;;;;;;19.06;58.81;97083.75;5053622;28;20343;-84
2021/09/06 06:47:24;;;;;;;;;;;;;;;19.13;59.22;97085.38;5053265;28;20060;-84
2021/09/06 06:49:50;;;;;;;;;;;;;;;19.22;58.68;97081.97;5053248;28;20408;-84
2021/09/06 06:52:16;;;;;;;;;;;;;;;19.36;58.40;97079.69;5053691;28;19973;-84
2021/09/06 06:54:43;;;;;;;;;;;;;;;19.47;58.45;97081.31;5053273;28;19973;-83
2021/09/06 06:57:09;;;;;;;;;;;;;;;19.50;58.19;97082.66;5053611;28;19977;-83
2021/09/06 06:59:35;;;;;;;;;;;;;;;19.57;58.27;97075.25;5057895;28;19973;-83
2021/09/06 07:02:00;;;;;;;;;;;;;;;19.65;57.75;97072.09;5057261;28;19977;-83
2021/09/06 07:04:26;;;;;;;;;;;;;;;19.68;57.62;97070.75;5057272;28;19988;-83
2021/09/06 07:06:52;;;;;;;;;;;;;;;19.67;57.73;97077.94;5056843;28;20009;-82
2021/09/06 07:09:18;;;;;;;;;;;;;;;19.73;58.23;97078.78;5056973;28;20020;-83
2021/09/06 07:11:44;;;;;;;;;;;;;;;19.80;58.04;97076.69;5056788;28;19974;-82
2021/09/06 07:14:10;;;;;;;;;;;;;;;19.90;58.47;97080.44;5056965;28;20346;-82
2021/09/06 07:16:36;;;;;;;;;;;;;;;20.03;58.08;97080.75;5056955;28;19973;-82
2021/09/06 07:19:02;;;;;;;;;;;;;;;20.17;57.77;97069.59;5056063;28;20072;-83
2021/09/06 07:21:28;;;;;;;;;;;;;;;20.24;58.12;97075.44;5057441;28;19973;-82
2021/09/06 07:23:54;;;;;;;;;;;;;;;20.31;57.62;97075.19;5056703;28;19999;-82
2021/09/06 07:26:20;;;;;;;;;;;;;;;20.27;57.41;97074.94;5056635;28;20500;-83
2021/09/06 07:28:46;;;;;;;;;;;;;;;20.31;57.79;97076.00;5056851;28;19968;-82
2021/09/06 07:31:12;;;;;;;;;;;;;;;20.35;57.49;97069.06;5056897;28;19969;-82
2021/09/06 07:33:38;;;;;;;;;;;;;;;20.35;57.67;97077.06;5057065;28;19973;-82
2021/09/06 07:36:04;;;;;;;;;;;;;;;20.42;57.26;97085.59;5056635;28;20442;-81
2021/09/06 07:38:30;;;;;;;;;;;;;;;20.39;56.80;97075.47;5056439;28;19992;-82
2021/09/06 07:40:55;;;;;;;;;;;;;;;20.46;57.76;97091.19;5056620;28;20060;-81
2021/09/06 07:43:23;;;;;;;;;;;;;;;20.55;57.77;97097.59;5056628;28;19977;-82
2021/09/06 07:45:49;;;;;;;;;;;;;;;20.72;57.49;97092.00;5056254;28;20339;-82
2021/09/06 07:48:15;;;;;;;;;;;;;;;20.88;57.16;97088.28;5056345;28;19969;-82
2021/09/06 07:50:42;;;;;;;;;;;;;;;20.88;56.87;97092.81;5056035;28;20335;-81
2021/09/06 07:53:08;;;;;;;;;;;;;;;20.89;57.03;97091.75;5056290;28;19969;-82
2021/09/06 07:55:34;;;;;;;;;;;;;;;20.96;56.83;97102.16;5056169;28;20043;-82
2021/09/06 07:58:00;;;;;;;;;;;;;;;21.02;56.15;97093.06;5056019;28;19988;-82
2021/09/06 08:00:26;;;;;;;;;;;;;;;21.06;56.01;97094.94;5056170;28;19973;-82
2021/09/06 08:02:52;;;;;;;;;;;;;;;21.02;56.47;97103.72;5055351;28;19973;-81
2021/09/06 08:05:22;;;;;;;;;;;;;;;21.04;56.85;97109.59;5055915;28;20032;-81
2021/09/06 08:07:48;;;;;;;;;;;;;;;21.14;56.84;97106.13;5056107;28;19966;-81
2021/09/06 08:10:17;;;;;;;;;;;;;;;21.26;55.94;97091.41;5053922;28;19977;-82
2021/09/06 08:12:43;;;;;;;;;;;;;;;21.34;56.70;97108.75;5055702;28;19969;-82
2021/09/06 08:15:10;;;;;;;;;;;;;;;21.48;56.37;97107.13;5056094;28;19969;-82
2021/09/06 08:17:36;;;;;;;;;;;;;;;21.46;54.09;97087.09;5056101;28;19988;-81
2021/09/06 08:20:03;;;;;;;;;;;;;;;21.47;55.32;97102.06;5055664;28;19969;-82
2021/09/06 08:22:29;;;;;;;;;;;;;;;21.60;55.36;97106.03;5054417;28;19993;-82
2021/09/06 08:24:55;;;;;;;;;;;;;;;21.68;54.71;97108.13;5055770;28;19988;-82
2021/09/06 08:27:22;;;;;;;;;;;;;;;21.71;54.45;97102.22;5055400;28;19973;-82
2021/09/06 08:29:48;;;;;;;;;;;;;;;21.75;55.23;97111.28;5055513;28;20339;-82
2021/09/06 08:32:14;;;;;;;;;;;;;;;21.82;55.06;97108.34;5055662;28;19988;-82
2021/09/06 08:34:40;;;;;;;;;;;;;;;21.91;53.88;97098.69;5055271;28;20008;-82
2021/09/06 08:37:06;;;;;;;;;;;;;;;21.93;54.05;97103.75;5054956;28;19969;-82
2021/09/06 08:39:32;;;;;;;;;;;;;;;21.95;54.71;97118.44;5055204;28;20039;-81
2021/09/06 08:41:59;;;;;;;;;;;;;;;21.98;53.81;97109.84;5055416;28;20065;-81
2021/09/06 08:44:25;;;;;;;;;;;;;;;21.98;54.38;97111.72;5055312;28;19976;-82
2021/09/06 08:46:54;;;;;;;;;;;;;;;21.97;53.58;97104.81;5055104;28;19977;-83
2021/09/06 08:49:21;;;;;;;;;;;;;;;21.91;53.41;97103.25;5054701;28;19969;-82
2021/09/06 08:51:47;;;;;;;;;;;;;;;21.94;53.37;97108.81;5055126;28;19973;-82
2021/09/06 08:54:13;;;;;;;;;;;;;;;21.97;53.64;97115.50;5054974;28;19969;-82
2021/09/06 08:56:39;;;;;;;;;;;;;;;22.01;55.59;97132.56;5055054;28;19969;-82
2021/09/06 08:59:06;;;;;;;;;;;;;;;22.13;54.31;97121.53;5055063;28;20362;-81
2021/09/06 09:01:53;;;;;;;;;;;;;;;22.24;54.16;97118.56;5055044;28;19973;-82
2021/09/06 09:04:20;;;;;;;;;;;;;;;22.25;53.72;97109.47;5054638;28;19969;-82
2021/09/06 09:06:47;;;;;;;;;;;;;;;22.29;52.38;97101.72;5054550;28;19965;-82
2021/09/06 09:09:20;;;;;;;;;;;;;;;22.32;53.86;97127.06;5054638;28;19992;-82
2021/09/06 09:12:01;;;;;;;;;;;;;;;22.31;53.08;97104.09;5053063;28;19969;-82
2021/09/06 09:14:27;;;;;;;;;;;;;;;22.32;53.06;97113.72;5053406;28;19976;-81
2021/09/06 09:16:59;;;;;;;;;;;;;;;22.20;53.18;97106.03;5054884;28;19973;-82
2021/09/06 09:19:25;;;;;;;;;;;;;;;22.13;50.88;97079.59;5053551;28;19985;-82
2021/09/06 09:21:52;;;;;;;;;;;;;;;22.14;54.01;97118.59;5053061;28;20358;-81
2021/09/06 09:24:19;;;;;;;;;;;;;;;22.13;52.99;97108.97;5054523;28;19972;-82
2021/09/06 09:26:57;;;;;;;;;;;;;;;22.14;53.47;97118.59;5054372;28;19965;-81
2021/09/06 09:29:23;;;;;;;;;;;;;;;22.20;52.94;97108.69;5054438;28;19976;-81
2021/09/06 09:31:50;;;;;;;;;;;;;;;22.24;54.34;97128.47;5054630;28;19976;-81
2021/09/06 09:34:16;;;;;;;;;;;;;;;22.30;54.34;97122.03;5054633;28;19991;-81
2021/09/06 09:36:42;;;;;;;;;;;;;;;22.32;52.30;97098.47;5054265;28;19981;-81
2021/09/06 09:39:16;;;;;;;;;;;;;;;22.31;49.39;97074.72;5052228;28;19993;-82
2021/09/06 09:41:43;;;;;;;;;;;;;;;22.29;49.57;97080.34;5053154;28;19973;-82
2021/09/06 09:44:27;;;;;;;;;;;;;;;22.29;49.29;97096.38;5054133;28;19972;-82
2021/09/06 09:47:03;;;;;;;;;;;;;;;22.27;48.70;97090.50;5041936;28;20427;-82
2021/09/06 09:49:31;;;;;;;;;;;;;;;22.29;50.89;97110.50;5053863;28;19973;-82
2021/09/06 09:51:57;;;;;;;;;;;;;;;22.35;49.38;97095.25;5054007;28;19980;-82
2021/09/06 09:54:23;;;;;;;;;;;;;;;22.37;49.26;97101.13;5053764;28;19977;-82
2021/09/06 09:56:49;;;;;;;;;;;;;;;22.36;49.63;97104.84;5054093;28;19973;-82
2021/09/06 09:59:17;;;;;;;;;;;;;;;22.37;47.39;97090.44;5054122;28;20068;-82
2021/09/06 10:01:45;;;;;;;;;;;;;;;22.37;45.31;97062.91;5053655;28;19972;-81
2021/09/06 10:04:12;;;;;;;;;;;;;;;22.41;46.72;97094.16;5053970;28;20430;-81
2021/09/06 10:06:40;;;;;;;;;;;;;;;22.45;47.78;97097.06;5053569;28;19976;-82
2021/09/06 10:09:06;;;;;;;;;;;;;;;22.51;46.29;97082.59;5053832;28;20316;-81
2021/09/06 10:11:36;;;;;;;;;;;;;;;22.58;47.83;97103.66;5053781;28;20052;-81
2021/09/06 10:14:16;;;;;;;;;;;;;;;22.67;43.65;97064.53;5053587;28;20442;-81
2021/09/06 10:16:41;;;;;;;;;;;;;;;22.78;48.46;97098.13;5053612;28;19973;-81
2021/09/06 10:19:09;;;;;;;;;;;;;;;22.87;47.16;97096.47;5053487;28;19982;-82
2021/09/06 10:21:39;;;;;;;;;;;;;;;22.98;44.46;97091.03;5053450;28;20334;-80
2021/09/06 10:24:11;;;;;;;;;;;;;;;23.05;44.21;97102.22;5052074;28;19973;-81
2021/09/06 10:26:37;;;;;;;;;;;;;;;23.10;45.45;97111.00;5052565;28;19988;-81
2021/09/06 10:29:13;;;;;;;;;;;;;;;23.20;44.30;97109.28;5053575;28;20001;-81
2021/09/06 10:31:39;;;;;;;;;;;;;;;23.34;45.31;97109.44;5053071;28;19980;-81
2021/09/06 10:34:07;;;;;;;;;;;;;;;23.38;44.82;97107.78;5053459;28;19965;-81
2021/09/06 10:36:33;;;;;;;;;;;;;;;23.44;40.12;97101.28;5053789;28;19981;-81
2021/09/06 10:39:02;;;;;;;;;;;;;;;23.55;43.86;97123.38;5053216;28;19993;-81
2021/09/06 10:41:28;;;;;;;;;;;;;;;23.66;43.66;97119.50;5053397;28;19984;-81
2021/09/06 10:43:57;;;;;;;;;;;;;;;23.83;44.21;97129.78;5053343;28;19973;-81
2021/09/06 10:46:23;;;;;;;;;;;;;;;23.93;41.35;97116.25;5053043;28;19970;-81
2021/09/06 10:48:50;;;;;;;;;;;;;;;24.00;39.83;97115.91;5053294;28;19976;-81
2021/09/06 10:51:29;;;;;;;;;;;;;;;24.06;41.60;97120.88;5053350;28;19973;-81
2021/09/06 10:53:56;;;;;;;;;;;;;;;24.17;41.36;97112.72;5044581;28;19973;-81
2021/09/06 10:56:29;;;;;;;;;;;;;;;24.33;42.39;97122.16;5053002;28;20336;-81
2021/09/06 10:58:56;;;;;;;;;;;;;;;24.57;41.21;97113.25;5053381;28;19989;-81
2021/09/06 11:01:22;;;;;;;;;;;;;;;24.73;42.58;97108.44;5052017;28;20055;-81
2021/09/06 11:03:49;;;;;;;;;;;;;;;24.78;38.35;97101.13;5053255;28;19980;-81
2021/09/06 11:06:14;;;;;;;;;;;;;;;24.73;36.35;97097.72;5053064;28;19973;-80
2021/09/06 11:08:40;;;;;;;;;;;;;;;24.80;39.06;97127.63;5053057;28;19991;-80
2021/09/06 11:11:10;;;;;;;;;;;;;;;24.81;35.42;97105.09;5053201;28;19969;-81
2021/09/06 11:13:40;;;;;;;;;;;;;;;24.74;35.69;97131.47;5052184;28;19969;-81
2021/09/06 11:16:07;;;;;;;;;;;;;;;24.74;38.16;97143.03;5053102;28;19972;-81
2021/09/06 11:18:34;;;;;;;;;;;;;;;24.94;37.76;97138.41;5053097;28;19981;-80
2021/09/06 11:21:00;;;;;;;;;;;;;;;25.06;38.17;97134.16;5053033;28;19970;-81
2021/09/06 11:23:33;;;;;;;;;;;;;;;25.21;35.98;97125.09;5052658;28;20000;-81
2021/09/06 11:26:00;;;;;;;;;;;;;;;25.33;37.28;97134.56;5052843;28;19992;-81
2021/09/06 11:28:26;;;;;;;;;;;;;;;25.34;32.13;97109.28;5052307;28;19976;-80
2021/09/06 11:30:52;;;;;;;;;;;;;;;25.42;36.05;97127.41;5053046;28;20434;-80
2021/09/06 11:33:18;;;;;;;;;;;;;;;25.56;32.94;97104.03;5052948;28;19965;-80
2021/09/06 11:35:45;;;;;;;;;;;;;;;25.66;34.42;97105.72;5052861;28;20090;-80
2021/09/06 11:38:11;;;;;;;;;;;;;;;25.74;37.09;97129.19;5052745;28;19988;-80
2021/09/06 11:40:38;;;;;;;;;;;;;;;25.93;36.66;97118.34;5052984;28;19977;-80
2021/09/06 11:43:05;;;;;;;;;;;;;;;25.88;34.95;97105.00;5052990;28;19973;-81
2021/09/06 11:45:31;;;;;;;;;;;;;;;25.89;35.13;97106.63;5055193;28;19977;-80
2021/09/06 11:48:01;;;;;;;;;;;;;;;25.98;34.58;97096.75;5055118;28;19969;-80
2021/09/06 11:50:31;;;;;;;;;;;;;;;26.04;35.30;97105.50;5056294;28;19980;-81
2021/09/06 11:53:04;;;;;;;;;;;;;;;26.05;36.39;97107.88;5056342;28;19977;-80
2021/09/06 11:55:30;;;;;;;;;;;;;;;26.16;35.90;97105.75;5055273;28;19973;-80
2021/09/06 11:58:09;;;;;;;;;;;;;;;26.21;34.65;97092.22;5056766;28;19988;-80
2021/09/06 12:00:36;;;;;;;;;;;;;;;26.38;35.74;97102.34;5056209;28;19999;-80
2021/09/06 12:03:03;;;;;;;;;;;;;;;26.45;34.51;97113.44;5055995;28;19973;-80
2021/09/06 12:05:39;;;;;;;;;;;;;;;26.50;32.44;97096.38;5055836;28;20345;-80
2021/09/06 12:08:09;;;;;;;;;;;;;;;26.65;35.29;97112.22;5055528;28;19976;-80
2021/09/06 12:10:35;;;;;;;;;;;;;;;26.76;33.60;97099.31;5056110;28;20346;-80
2021/09/06 12:13:02;;;;;;;;;;;;;;;26.84;33.53;97098.56;5055986;28;19971;-80
2021/09/06 12:15:30;;;;;;;;;;;;;;;26.92;33.85;97097.84;5055907;28;19981;-80
2021/09/06 12:18:06;;;;;;;;;;;;;;;27.00;34.66;97107.03;5054852;28;19969;-80
2021/09/06 12:20:34;;;;;;;;;;;;;;;26.95;30.98;97090.25;5047225;28;19980;-80
2021/09/06 12:23:00;;;;;;;;;;;;;;;26.79;31.67;97101.38;5055458;28;19993;-81
2021/09/06 12:25:26;;;;;;;;;;;;;;;26.80;32.56;97111.06;5056038;28;20064;-80
2021/09/06 12:27:52;;;;;;;;;;;;;;;26.91;32.83;97114.28;5055671;28;19981;-80
2021/09/06 12:30:18;;;;;;;;;;;;;;;26.87;33.82;97127.56;5055308;28;19974;-80
2021/09/06 12:32:44;;;;;;;;;;;;;;;26.79;31.20;97100.59;5055629;28;19969;-80
2021/09/06 12:35:10;;;;;;;;;;;;;;;26.81;33.75;97118.00;5055416;28;20428;-80
2021/09/06 12:37:36;;;;;;;;;;;;;;;26.90;33.63;97115.41;5055877;28;19973;-80
2021/09/06 12:40:03;;;;;;;;;;;;;;;26.97;34.93;97121.13;5053612;28;20370;-80
2021/09/06 12:42:30;;;;;;;;;;;;;;;27.13;33.39;97108.06;5054506;28;19973;-80
2021/09/06 12:44:56;;;;;;;;;;;;;;;27.10;33.03;97100.59;5055015;28;20027;-80